Time;durP1;ratioP1;P1;durP2;ratioP2;P2;SDS_P1;SDS_P2;PMS_P1;PMS_P2;Temp;Humidity;BMP_temperature;BMP_pressure;BME280_temperature;BME280_humidity;BME280_pressure;Samples;Min_cycle;Max_cycle;Signal;HPM_P1;HPM_P2
2024/03/29 01:46:00;;;;;;;1.80;1.70;;;5.10;99.90;;;5.68;90.86;96199.06;10323885;28;20230;-65
2024/03/29 01:51:04;;;;;;;1.80;1.70;;;5.10;99.90;;;6.09;85.75;96213.72;10328142;28;20611;-64
2024/03/29 01:56:07;;;;;;;2.03;1.93;;;5.60;99.90;;;6.42;80.57;96204.31;10330304;28;21736;-64
2024/03/29 02:01:12;;;;;;;2.17;2.07;;;6.00;99.90;;;6.84;77.26;96213.78;10332585;28;20230;-65
2024/03/29 02:06:16;;;;;;;2.10;1.90;;;6.40;99.90;;;7.51;69.69;96211.63;10327632;28;20280;-64
2024/03/29 02:11:19;;;;;;;2.10;2.00;;;7.00;99.90;;;7.64;69.46;96207.88;10335455;28;20744;-65
2024/03/29 02:16:21;;;;;;;1.37;1.37;;;7.20;99.90;;;7.78;69.20;96195.75;10331700;28;20245;-64
2024/03/29 02:21:24;;;;;;;2.40;2.17;;;7.30;99.90;;;7.60;75.18;96189.09;10329258;28;20713;-64
2024/03/29 02:26:31;;;;;;;2.30;1.90;;;6.90;99.90;;;7.33;79.34;96195.59;10321139;28;20724;-64
2024/03/29 02:31:33;;;;;;;2.90;2.60;;;6.60;99.90;;;7.09;82.04;96205.56;10336134;28;20230;-65
2024/03/29 02:36:36;;;;;;;2.20;2.10;;;6.30;99.90;;;6.91;82.36;96186.19;10332793;28;20775;-64
2024/03/29 02:41:39;;;;;;;2.23;2.10;;;6.20;99.90;;;6.93;82.39;96193.88;10321947;28;20234;-64
2024/03/29 02:46:42;;;;;;;1.73;1.63;;;6.20;99.90;;;6.87;83.50;96184.31;10340348;28;20270;-63
2024/03/29 02:51:44;;;;;;;1.93;1.93;;;6.20;99.90;;;6.99;78.85;96187.38;10340690;28;20237;-64
2024/03/29 02:56:48;;;;;;;1.73;1.73;;;6.30;99.90;;;7.06;79.10;96155.50;10321601;28;20233;-64
2024/03/29 03:01:50;;;;;;;2.03;1.93;;;6.40;99.90;;;7.09;81.78;96160.69;10322432;28;20316;-64
2024/03/29 03:06:52;;;;;;;2.13;1.90;;;6.20;99.90;;;6.92;85.21;96156.56;10326801;28;20233;-64
2024/03/29 03:11:55;;;;;;;2.00;1.90;;;6.00;99.90;;;6.63;84.75;96158.72;10328737;28;20233;-64
2024/03/29 03:16:57;;;;;;;1.77;1.67;;;5.90;99.90;;;6.85;82.13;96174.91;10333249;28;20961;-64
2024/03/29 03:21:59;;;;;;;1.80;1.70;;;6.10;99.90;;;6.73;85.11;96173.56;10322116;28;20287;-65
2024/03/29 03:27:04;;;;;;;1.80;1.70;;;6.00;99.90;;;6.97;81.47;96172.88;10334934;28;20230;-64
2024/03/29 03:32:07;;;;;;;2.10;2.00;;;6.20;99.90;;;6.87;81.14;96173.31;10322269;28;20226;-64
2024/03/29 03:37:09;;;;;;;2.10;2.00;;;6.20;99.90;;;7.06;79.43;96178.34;10360644;23;20221;-66
2024/03/29 03:42:12;;;;;;;2.13;1.70;;;6.40;99.90;;;7.02;82.73;96178.19;10392891;28;20225;-66
2024/03/29 03:47:15;;;;;;;2.10;2.00;;;6.30;99.90;;;6.95;82.02;96177.03;10395877;28;20244;-66
2024/03/29 03:52:17;;;;;;;2.20;2.00;;;6.30;99.90;;;7.07;82.82;96180.13;10393531;28;20990;-66
2024/03/29 03:57:20;;;;;;;1.73;1.63;;;6.30;99.90;;;6.94;80.04;96186.31;10392734;28;20487;-65
2024/03/29 04:02:22;;;;;;;1.87;1.80;;;6.30;99.90;;;7.03;82.47;96175.69;10413077;28;20239;-64
2024/03/29 04:07:26;;;;;;;2.50;1.73;;;6.30;99.90;;;7.02;84.33;96204.44;10394197;28;20239;-64
2024/03/29 04:12:29;;;;;;;1.93;1.90;;;6.20;99.90;;;6.90;85.95;96199.69;10391128;28;20221;-64
2024/03/29 04:17:32;;;;;;;2.13;2.00;;;6.20;99.90;;;7.00;85.76;96190.78;10395626;28;20233;-65
2024/03/29 04:22:34;;;;;;;2.20;2.10;;;6.20;99.90;;;6.96;85.92;96181.31;10395595;28;20236;-65
2024/03/29 04:27:37;;;;;;;1.63;1.63;;;6.20;99.90;;;6.97;84.94;96180.50;10394029;28;20240;-64
2024/03/29 04:32:39;;;;;;;2.07;1.97;;;6.30;99.90;;;7.15;79.15;96165.19;10395650;28;20228;-64
2024/03/29 04:37:41;;;;;;;1.57;1.57;;;6.50;99.90;;;7.42;69.41;96150.22;10391821;28;20240;-65
2024/03/29 04:42:45;;;;;;;1.80;1.70;;;6.80;99.90;;;7.63;70.88;96137.53;10393279;28;20304;-65
2024/03/29 04:47:47;;;;;;;2.03;1.93;;;7.00;99.90;;;7.78;71.83;96166.09;10408629;28;20224;-65
2024/03/29 04:52:49;;;;;;;2.00;1.80;;;7.10;99.90;;;7.63;77.61;96201.94;10388763;28;20221;-65
2024/03/29 04:57:53;;;;;;;1.80;1.80;;;6.90;99.90;;;7.63;79.70;96207.03;10391986;28;20238;-64
2024/03/29 05:02:55;;;;;;;2.20;2.10;;;6.80;99.90;;;7.42;79.60;96239.19;10395396;28;20231;-64
2024/03/29 05:07:57;;;;;;;2.23;2.03;;;6.70;99.90;;;7.58;81.76;96228.88;10400562;28;20607;-64
2024/03/29 05:13:01;;;;;;;2.03;1.70;;;6.70;99.90;;;7.35;77.67;96224.47;10404472;28;20225;-64
2024/03/29 05:18:04;;;;;;;2.00;1.90;;;6.80;99.90;;;7.48;80.25;96210.63;10411067;28;20239;-64
2024/03/29 05:23:07;;;;;;;2.20;2.10;;;6.80;99.90;;;7.70;68.47;96164.03;10413022;28;20237;-64
2024/03/29 05:28:10;;;;;;;1.73;1.63;;;7.00;99.90;;;8.07;69.89;96164.72;10411342;28;20225;-65
2024/03/29 05:33:12;;;;;;;2.23;2.13;;;7.50;99.90;;;8.04;75.11;96159.53;10429678;28;20250;-65
2024/03/29 05:38:15;;;;;;;2.50;2.30;;;7.30;99.90;;;7.81;75.32;96167.91;10428354;28;20878;-64
2024/03/29 05:43:18;;;;;;;2.33;2.13;;;7.10;99.90;;;7.81;71.49;96165.34;10414306;28;20237;-64
2024/03/29 05:48:20;;;;;;;2.07;1.93;;;7.20;99.90;;;7.92;70.68;96184.44;10410093;28;20230;-64
2024/03/29 05:53:22;;;;;;;2.10;1.90;;;7.30;99.90;;;8.04;70.04;96181.53;10426324;28;20346;-64
2024/03/29 05:58:26;;;;;;;2.00;1.90;;;7.50;99.90;;;8.10;72.28;96166.53;10424712;28;20318;-64
2024/03/29 06:03:29;;;;;;;2.37;2.20;;;7.50;99.90;;;8.16;72.97;96173.53;10412037;28;20233;-65
2024/03/29 06:08:31;;;;;;;2.37;2.23;;;7.50;99.90;;;8.23;75.86;96180.56;10400100;28;20793;-64
2024/03/29 06:18:50;;;;;;;2.80;2.30;;;7.50;99.90;;;8.10;80.42;96204.69;10396782;28;20297;-64
2024/03/29 06:23:53;;;;;;;2.90;2.30;;;7.30;99.90;;;8.01;80.90;96205.19;10402051;28;20234;-64
2024/03/29 06:28:56;;;;;;;3.63;3.30;;;7.30;99.90;;;8.09;81.63;96190.22;10401837;28;20225;-64
2024/03/29 06:33:59;;;;;;;6.90;6.40;;;7.30;99.90;;;8.19;78.65;96181.28;10400884;28;20581;-64
2024/03/29 06:39:01;;;;;;;3.23;3.03;;;7.50;99.90;;;8.39;80.18;96187.16;10396323;28;20239;-64
2024/03/29 06:44:05;;;;;;;1.90;1.80;;;7.70;99.90;;;8.51;74.71;96183.41;10399920;28;21090;-64
2024/03/29 06:49:07;;;;;;;1.80;1.70;;;7.80;99.90;;;8.93;68.45;96178.16;10392733;28;20703;-68
2024/03/29 06:54:09;;;;;;;1.43;1.43;;;8.40;99.90;;;9.45;59.78;96167.22;10398580;28;20863;-66
2024/03/29 06:59:13;;;;;;;1.63;1.53;;;8.90;99.90;;;9.65;60.81;96157.69;10401339;28;20229;-66
2024/03/29 07:04:15;;;;;;;2.70;2.50;;;9.10;99.90;;;9.79;58.61;96163.25;10396643;28;20978;-67
2024/03/29 07:09:17;;;;;;;2.17;2.08;;;9.30;99.90;;;9.96;58.14;96150.13;10407098;28;20236;-66
2024/03/29 07:14:23;;;;;;;1.45;1.45;;;9.50;99.90;;;10.23;54.23;96153.53;10402056;28;20229;-66
2024/03/29 07:19:25;;;;;;;1.88;1.40;;;9.70;98.70;;;10.34;55.04;96154.78;10403456;28;20233;-66
2024/03/29 07:24:28;;;;;;;1.80;1.70;;;9.90;98.60;;;10.49;54.69;96140.72;10426572;28;20229;-66
2024/03/29 07:29:33;;;;;;;1.65;1.65;;;10.10;98.00;;;10.72;54.28;96139.69;10398176;28;20247;-65
2024/03/29 07:34:36;;;;;;;1.45;1.45;;;10.20;98.00;;;10.89;53.70;96147.84;10402311;28;20235;-66
2024/03/29 07:39:38;;;;;;;2.42;1.70;;;10.30;97.60;;;11.09;52.41;96155.19;10408875;28;20267;-65
2024/03/29 07:44:41;;;;;;;1.40;1.38;;;10.40;97.20;;;10.83;53.95;96152.78;10410400;28;20236;-64
2024/03/29 07:49:45;;;;;;;1.60;1.50;;;10.40;98.20;;;10.78;56.16;96162.88;10408588;28;20803;-64
2024/03/29 07:54:48;;;;;;;1.70;1.65;;;10.20;99.90;;;10.47;60.19;96166.25;10416087;28;20231;-65
2024/03/29 07:59:53;;;;;;;1.75;1.65;;;10.10;99.90;;;9.88;66.97;96221.34;10395819;28;20602;-64
2024/03/29 08:04:55;;;;;;;1.75;1.65;;;9.60;99.90;;;9.59;76.02;96248.44;10398369;28;20766;-64
2024/03/29 08:09:57;;;;;;;3.58;3.28;;;9.20;99.90;;;9.25;85.07;96260.00;10398191;28;20233;-64
2024/03/29 08:15:00;;;;;;;3.03;2.80;;;8.90;99.90;;;9.25;85.98;96262.53;10404508;28;20229;-64
2024/03/29 08:20:03;;;;;;;1.77;1.67;;;8.90;99.90;;;9.20;83.78;96264.06;10402509;28;22070;-64
2024/03/29 08:25:06;;;;;;;1.77;1.63;;;8.90;99.90;;;9.22;88.65;96280.28;10395239;28;20237;-64
2024/03/29 08:30:11;;;;;;;31.50;28.37;;;9.00;99.90;;;9.32;90.30;96274.69;10397764;28;20225;-64
2024/03/29 08:35:14;;;;;;;3.20;2.63;;;9.00;99.90;;;9.70;96.79;96287.94;10389195;28;20225;-64
2024/03/29 08:40:16;;;;;;;3.53;3.33;;;9.10;99.90;;;9.46;97.47;96304.09;10404980;28;20270;-65
2024/03/29 08:45:19;;;;;;;5.20;4.80;;;9.10;99.90;;;9.52;99.56;96302.59;10410685;28;20235;-65
2024/03/29 08:50:22;;;;;;;3.13;2.42;;;9.10;99.90;;;9.61;100.00;96300.34;10413775;28;20229;-66
2024/03/29 08:55:24;;;;;;;2.67;2.47;;;9.10;99.90;;;9.79;100.00;96295.06;10416679;28;20225;-66
2024/03/29 09:00:28;;;;;;;7.32;6.72;;;9.30;99.90;;;10.01;100.00;96300.03;10411672;28;20230;-66
2024/03/29 09:05:31;;;;;;;8.25;7.55;;;9.50;99.90;;;10.14;100.00;96296.22;10419876;28;20224;-65
2024/03/29 09:10:33;;;;;;;3.58;3.28;;;9.60;99.90;;;10.18;100.00;96303.16;10436008;28;20609;-68
2024/03/29 09:15:36;;;;;;;2.85;2.65;;;9.60;99.90;;;10.33;100.00;96316.50;10410385;28;20757;-68
2024/03/29 09:20:38;;;;;;;5.70;4.38;;;9.70;99.90;;;10.48;100.00;96326.34;10411806;28;20552;-67
2024/03/29 09:25:41;;;;;;;4.07;3.60;;;9.90;99.90;;;10.46;100.00;96329.66;10411288;28;20233;-67
2024/03/29 09:30:45;;;;;;;3.17;2.88;;;9.90;99.90;;;10.49;100.00;96305.06;10413799;28;20247;-67
2024/03/29 09:35:47;;;;;;;2.97;2.60;;;10.00;99.90;;;10.58;100.00;96307.91;10423601;28;20225;-67
2024/03/29 09:41:03;;;;;;;2.60;2.40;;;10.10;99.90;;;10.73;100.00;96304.09;10407024;28;20233;-67
2024/03/29 09:46:08;;;;;;;2.83;2.60;;;10.20;99.90;;;10.71;100.00;96255.50;10413521;28;20565;-64
2024/03/29 09:51:13;;;;;;;4.10;3.80;;;10.10;99.90;;;10.76;100.00;96306.78;10402848;28;20237;-64
2024/03/29 09:56:16;;;;;;;6.35;4.07;;;10.20;99.90;;;10.86;100.00;96315.59;10401104;28;20226;-64
2024/03/29 10:01:19;;;;;;;3.47;3.17;;;10.20;99.90;;;10.75;100.00;96294.78;10403102;28;20618;-66
2024/03/29 10:06:25;;;;;;;5.32;3.90;;;10.00;99.90;;;10.65;100.00;96265.56;10398000;28;20221;-64
2024/03/29 10:11:27;;;;;;;5.05;4.65;;;10.00;99.90;;;10.75;100.00;96251.34;10421647;28;20237;-65
2024/03/29 10:16:33;;;;;;;3.00;2.80;;;10.00;99.90;;;10.92;100.00;96216.06;10408264;28;20228;-72
2024/03/29 10:21:36;;;;;;;2.08;1.98;;;10.20;99.90;;;10.72;100.00;96226.56;10419263;28;20294;-69
2024/03/29 10:26:38;;;;;;;2.78;2.58;;;10.20;99.90;;;10.76;100.00;96238.63;10399691;28;20221;-65
2024/03/29 10:31:42;;;;;;;3.10;2.65;;;10.30;99.90;;;10.86;100.00;96244.03;10401640;28;20773;-67
2024/03/29 10:36:44;;;;;;;2.92;2.72;;;10.40;99.90;;;11.13;99.86;96239.72;10409746;28;20226;-66
2024/03/29 10:41:48;;;;;;;4.85;4.45;;;10.50;99.90;;;11.17;100.00;96251.75;10389674;28;20234;-64
2024/03/29 10:46:53;;;;;;;3.13;2.85;;;10.60;99.90;;;11.45;99.17;96262.78;10399198;28;20290;-68
2024/03/29 10:51:57;;;;;;;2.90;2.70;;;10.80;99.90;;;11.49;97.86;96259.47;10391517;28;20239;-67
2024/03/29 10:57:07;;;;;;;3.00;2.80;;;10.90;99.90;;;11.47;96.91;96261.09;10392653;28;20240;-65
2024/03/29 11:02:17;;;;;;;3.90;3.50;;;11.00;99.90;;;11.50;98.64;96250.94;10396191;28;20687;-65
2024/03/29 11:07:22;;;;;;;4.18;3.63;;;10.90;99.90;;;11.60;98.39;96232.47;10413451;28;20237;-70
2024/03/29 11:12:25;;;;;;;4.63;4.22;;;11.00;99.90;;;11.80;98.06;96239.81;10393407;28;20217;-67
2024/03/29 11:17:30;;;;;;;5.10;4.60;;;11.20;99.90;;;12.03;100.00;96225.91;10397280;28;20595;-66
2024/03/29 11:22:32;;;;;;;4.13;3.05;;;11.40;99.90;;;12.28;98.46;96218.84;10395298;28;20231;-68
2024/03/29 11:27:35;;;;;;;3.25;2.90;;;11.60;99.90;;;12.31;98.87;96214.66;10395729;28;20302;-66
2024/03/29 11:32:41;;;;;;;3.70;3.33;;;11.60;99.90;;;12.50;94.51;96205.69;10403523;28;20235;-65
2024/03/29 11:37:43;;;;;;;4.40;2.80;;;11.70;99.90;;;12.65;95.03;96214.53;10403377;28;20255;-66
2024/03/29 11:42:47;;;;;;;3.53;3.25;;;11.90;99.90;;;12.91;90.83;96194.63;10415221;28;20229;-68
2024/03/29 11:47:53;;;;;;;2.65;2.45;;;12.20;99.90;;;13.05;91.73;96206.03;10402665;28;20239;-68
2024/03/29 11:52:55;;;;;;;3.53;2.70;;;12.40;99.90;;;13.41;86.58;96210.19;10407833;28;20225;-69
2024/03/29 11:57:57;;;;;;;3.00;2.70;;;12.70;99.90;;;13.25;89.07;96198.72;10400998;28;21972;-66
2024/03/29 12:03:00;;;;;;;3.10;2.60;;;12.60;99.90;;;13.46;88.34;96198.31;10399726;28;20557;-68
2024/03/29 12:08:03;;;;;;;2.80;2.60;;;12.70;99.90;;;13.74;83.94;96197.09;10397963;28;20247;-67
2024/03/29 12:13:06;;;;;;;2.40;2.20;;;12.90;99.90;;;13.77;79.55;96198.88;10401994;28;20579;-70
2024/03/29 12:18:09;;;;;;;2.55;2.35;;;13.00;99.90;;;13.71;80.76;96210.75;10397547;28;20236;-67
2024/03/29 12:23:13;;;;;;;2.92;2.10;;;13.00;99.90;;;13.85;77.75;96211.00;10406311;28;20300;-72
2024/03/29 12:28:16;;;;;;;1.80;1.70;;;13.20;99.90;;;14.37;67.51;96208.44;10398289;28;20243;-66
2024/03/29 12:33:22;;;;;;;1.60;1.50;;;13.60;99.90;;;14.78;64.00;96203.91;10405858;28;20325;-67
2024/03/29 12:38:24;;;;;;;1.70;1.60;;;14.00;99.90;;;14.95;60.89;96206.72;10390751;28;20712;-68
2024/03/29 12:43:27;;;;;;;1.55;1.45;;;14.20;99.90;;;14.75;63.98;96185.88;10392162;28;20229;-64
2024/03/29 12:48:33;;;;;;;1.83;1.73;;;14.00;99.90;;;14.96;62.38;96190.41;10392627;28;20704;-70
2024/03/29 12:53:40;;;;;;;1.90;1.80;;;14.10;99.90;;;14.97;63.97;96186.16;10397717;28;20233;-64
2024/03/29 12:58:42;;;;;;;2.53;1.70;;;14.10;99.90;;;15.43;60.04;96195.28;10396175;28;20779;-70
2024/03/29 13:03:45;;;;;;;2.08;1.65;;;14.40;99.90;;;15.07;57.84;96180.25;10394604;28;20810;-66
2024/03/29 13:08:49;;;;;;;1.77;1.67;;;14.30;99.90;;;15.14;59.63;96188.91;10415037;28;20225;-66
2024/03/29 13:13:51;;;;;;;1.83;1.73;;;14.20;99.90;;;15.16;64.09;96212.97;10393596;28;20225;-64
2024/03/29 13:18:55;;;;;;;1.77;1.67;;;14.20;99.90;;;15.15;65.05;96217.25;10395719;28;20231;-67
2024/03/29 13:23:57;;;;;;;1.80;1.70;;;14.10;99.90;;;15.29;62.12;96231.16;10391812;28;20282;-67
2024/03/29 13:29:00;;;;;;;1.60;1.50;;;14.30;99.90;;;15.44;61.03;96227.03;10398544;28;20233;-67
2024/03/29 13:34:11;;;;;;;1.80;1.70;;;14.60;99.90;;;15.58;59.71;96222.91;10405013;28;20225;-66
2024/03/29 13:39:15;;;;;;;1.65;1.50;;;14.80;99.90;;;16.01;57.79;96217.38;10401539;28;20239;-69
2024/03/29 13:44:17;;;;;;;1.70;1.60;;;15.10;99.90;;;15.57;56.13;96221.19;10398502;28;20232;-66
2024/03/29 13:49:21;;;;;;;1.80;1.70;;;14.90;99.90;;;15.48;60.85;96215.91;10416613;28;20233;-65
2024/03/29 13:54:24;;;;;;;2.17;1.58;;;14.80;99.90;;;15.59;56.34;96198.88;10425696;28;20769;-67
2024/03/29 13:59:27;;;;;;;1.48;1.38;;;14.90;99.90;;;15.71;55.56;96219.66;10405043;28;20231;-67
2024/03/29 14:04:31;;;;;;;1.60;1.50;;;14.90;99.90;;;15.89;52.95;96218.13;10401571;28;20225;-67
2024/03/29 14:09:33;;;;;;;1.67;1.58;;;15.30;99.50;;;15.94;53.46;96212.16;10405064;28;20750;-68
2024/03/29 14:14:35;;;;;;;2.47;1.70;;;15.20;99.70;;;16.28;49.82;96206.41;10397327;28;20712;-70
2024/03/29 14:19:40;;;;;;;1.88;1.77;;;15.60;97.40;;;16.24;51.54;96189.22;10398951;28;20234;-65
2024/03/29 14:24:42;;;;;;;1.60;1.50;;;15.60;98.00;;;16.22;51.68;96173.72;10395838;28;20603;-67
2024/03/29 14:29:46;;;;;;;1.77;1.67;;;15.70;97.80;;;16.35;50.99;96172.09;10410711;28;20235;-67
2024/03/29 14:34:49;;;;;;;1.50;1.40;;;15.60;97.70;;;16.28;50.49;96175.47;10400663;28;20334;-69
2024/03/29 14:39:51;;;;;;;1.50;1.40;;;15.70;96.80;;;16.55;50.05;96167.06;10401833;28;20240;-68
2024/03/29 14:44:53;;;;;;;1.85;1.30;;;15.80;96.70;;;16.48;49.73;96168.72;10400989;28;20623;-71
2024/03/29 14:49:57;;;;;;;1.38;1.27;;;15.80;96.00;;;16.47;49.61;96161.88;10398025;28;20239;-68
2024/03/29 14:54:59;;;;;;;1.30;1.20;;;15.90;95.70;;;16.37;50.30;96154.94;10390828;28;20217;-73
2024/03/29 15:00:02;;;;;;;1.50;1.40;;;15.80;96.70;;;16.40;51.67;96139.47;10401448;28;20234;-65
2024/03/29 15:05:07;;;;;;;2.13;1.48;;;15.80;97.70;;;16.42;52.55;96148.06;10395134;28;20671;-68
2024/03/29 15:10:11;;;;;;;1.92;1.67;;;15.80;98.30;;;16.49;53.21;96136.09;10398071;28;20225;-73
2024/03/29 15:15:13;;;;;;;1.63;1.42;;;15.80;99.10;;;16.73;52.70;96138.78;10395948;28;20247;-68
2024/03/29 15:20:16;;;;;;;1.33;1.23;;;16.10;98.50;;;16.66;53.24;96126.72;10394170;28;20236;-67
2024/03/29 15:25:19;;;;;;;2.53;1.50;;;16.00;99.50;;;16.76;53.55;96128.50;10412857;28;20237;-68
2024/03/29 15:30:21;;;;;;;1.33;1.33;;;16.20;99.10;;;16.82;53.36;96131.13;10410344;28;20728;-68
2024/03/29 15:35:25;;;;;;;2.38;2.17;;;16.20;99.50;;;16.72;53.87;96125.91;10395759;28;20229;-67
2024/03/29 15:40:27;;;;;;;6.43;5.13;;;16.20;99.90;;;16.67;55.11;96125.88;10406695;28;20308;-68
2024/03/29 15:45:29;;;;;;;1.98;1.88;;;16.00;99.90;;;16.55;55.42;96116.34;10427674;28;20320;-68
2024/03/29 15:50:32;;;;;;;1.48;1.38;;;15.90;99.90;;;16.42;55.22;96111.97;10412464;28;20360;-67
2024/03/29 15:55:35;;;;;;;1.70;1.60;;;15.90;99.90;;;16.40;56.15;96118.84;10414053;28;20308;-65
2024/03/29 16:00:42;;;;;;;1.70;1.60;;;15.80;99.90;;;16.43;56.27;96129.19;10418408;28;20319;-68
2024/03/29 16:05:46;;;;;;;1.55;1.45;;;15.70;99.90;;;16.36;55.56;96140.28;10416515;28;20685;-67
2024/03/29 16:10:54;;;;;;;1.17;1.13;;;15.60;99.90;;;16.30;56.42;96142.84;10422817;28;20336;-66
2024/03/29 16:16:00;;;;;;;1.70;1.60;;;15.50;99.90;;;16.26;57.28;96135.94;10408810;28;20787;-65
2024/03/29 16:21:04;;;;;;;1.60;1.50;;;15.40;99.90;;;16.16;57.84;96125.53;10412596;28;21027;-68
2024/03/29 16:26:06;;;;;;;1.98;1.70;;;15.40;99.90;;;15.98;59.58;96123.69;10405393;28;20595;-71
2024/03/29 16:31:08;;;;;;;16.45;11.50;;;15.30;99.90;;;15.95;60.32;96121.09;10413600;28;20320;-67
2024/03/29 16:36:12;;;;;;;2.22;2.00;;;15.20;99.90;;;15.89;59.95;96120.19;10416885;28;20324;-65
2024/03/29 16:41:14;;;;;;;2.20;2.10;;;15.10;99.90;;;15.61;61.79;96119.91;10413967;28;20680;-67
2024/03/29 16:46:17;;;;;;;2.78;2.28;;;14.90;99.90;;;15.63;61.96;96118.22;10421085;28;20348;-67
2024/03/29 16:51:21;;;;;;;2.10;2.00;;;14.80;99.90;;;15.50;63.00;96113.81;10418547;28;20756;-66
2024/03/29 16:56:23;;;;;;;39.22;24.02;;;14.70;99.90;;;15.35;63.57;96111.94;10423067;28;20260;-66
2024/03/29 17:01:25;;;;;;;101.22;62.83;;;14.60;99.90;;;15.29;63.29;96132.47;10425527;28;20267;-67
2024/03/29 17:06:33;;;;;;;8.32;7.15;;;14.50;99.90;;;15.21;63.93;96132.38;10416579;28;20359;-65
2024/03/29 17:11:35;;;;;;;3.33;2.53;;;14.40;99.90;;;15.09;64.26;96116.81;10422342;28;20776;-65
2024/03/29 17:16:37;;;;;;;2.92;2.60;;;14.30;99.90;;;15.01;65.06;96128.72;10431558;28;20308;-64
2024/03/29 17:21:40;;;;;;;2.70;2.50;;;14.10;99.90;;;14.84;66.70;96128.53;10415789;28;20335;-65
2024/03/29 17:26:43;;;;;;;2.67;2.47;;;13.90;99.90;;;14.64;69.35;96129.13;10417011;28;20319;-73
2024/03/29 17:31:45;;;;;;;2.72;2.53;;;13.70;99.90;;;14.45;69.58;96121.13;10429134;28;20319;-64
2024/03/29 17:36:49;;;;;;;2.60;2.40;;;13.50;99.90;;;14.30;70.82;96121.78;10421855;28;20311;-66
2024/03/29 17:41:51;;;;;;;3.00;2.80;;;13.30;99.90;;;14.25;70.89;96119.16;10417154;28;21130;-64
2024/03/29 17:46:53;;;;;;;4.63;3.47;;;13.30;99.90;;;14.17;72.13;96120.75;10422226;28;20316;-67
2024/03/29 17:51:57;;;;;;;3.40;3.10;;;13.40;99.90;;;14.01;72.36;96114.50;10416600;28;20328;-66
2024/03/29 17:56:59;;;;;;;5.70;5.20;;;13.20;99.90;;;13.95;73.41;96105.00;10421004;28;21132;-65
2024/03/29 18:02:01;;;;;;;8.85;7.53;;;13.10;99.90;;;13.85;74.13;96115.97;10434803;28;20312;-67
2024/03/29 18:07:05;;;;;;;6.70;6.10;;;13.00;99.90;;;13.72;75.03;96114.91;10415364;28;20236;-66
2024/03/29 18:12:08;;;;;;;5.97;5.40;;;12.90;99.90;;;13.63;76.08;96119.03;10405487;28;20225;-66
2024/03/29 18:17:10;;;;;;;5.53;5.03;;;12.80;99.90;;;13.49;77.00;96124.78;10413273;28;20237;-65
2024/03/29 18:22:13;;;;;;;5.32;4.93;;;12.70;99.90;;;13.39;77.08;96132.28;10410100;28;20331;-68
2024/03/29 18:27:15;;;;;;;4.28;3.88;;;12.60;99.90;;;13.28;78.85;96137.25;10421004;28;20224;-66
2024/03/29 18:32:17;;;;;;;5.10;4.70;;;12.40;99.90;;;13.16;79.34;96131.81;10408146;28;20252;-66
2024/03/29 18:37:21;;;;;;;5.05;4.32;;;12.20;99.90;;;12.96;81.74;96122.06;10409432;28;20243;-66
2024/03/29 18:42:23;;;;;;;5.35;4.65;;;12.10;99.90;;;12.83;81.82;96128.63;10424403;28;20278;-67
2024/03/29 18:47:25;;;;;;;7.50;4.68;;;11.90;99.90;;;12.71;83.23;96130.97;10406648;28;20229;-64
2024/03/29 18:52:28;;;;;;;5.65;5.10;;;11.80;99.90;;;12.55;84.25;96127.19;10405646;28;20232;-66
2024/03/29 18:57:31;;;;;;;5.80;4.97;;;11.60;99.90;;;12.45;84.33;96127.84;10407977;28;20225;-67
2024/03/29 19:02:33;;;;;;;5.13;4.63;;;11.50;99.90;;;12.33;86.07;96137.81;10403422;28;20229;-66
2024/03/29 19:07:37;;;;;;;7.13;6.43;;;11.40;99.90;;;12.25;86.77;96136.81;10404952;28;20590;-66
2024/03/29 19:12:39;;;;;;;8.63;7.72;;;11.30;99.90;;;12.10;87.20;96138.19;10406068;28;20320;-66
2024/03/29 19:17:41;;;;;;;9.57;7.97;;;11.20;99.90;;;12.06;87.59;96140.63;10401371;28;20319;-67
2024/03/29 19:22:47;;;;;;;4.97;4.50;;;11.10;99.90;;;12.00;88.76;96132.81;10406278;28;20840;-66
2024/03/29 19:27:50;;;;;;;4.40;4.00;;;11.10;99.90;;;11.97;89.11;96136.16;10406327;28;20239;-67
2024/03/29 19:32:57;;;;;;;4.45;3.83;;;11.10;99.90;;;12.13;88.39;96132.25;10395960;28;20225;-65
2024/03/29 19:38:00;;;;;;;4.20;3.75;;;11.20;99.90;;;11.90;89.66;96134.25;10390399;28;20235;-67
2024/03/29 19:43:03;;;;;;;5.57;4.97;;;11.10;99.90;;;11.78;91.31;96129.69;10401728;28;20313;-66
2024/03/29 19:48:07;;;;;;;7.13;6.35;;;10.90;99.90;;;11.70;91.54;96120.94;10390117;28;20263;-66
2024/03/29 19:53:10;;;;;;;7.28;6.57;;;10.90;99.90;;;11.68;92.04;96127.75;10393695;28;20235;-67
2024/03/29 19:58:12;;;;;;;5.47;4.50;;;10.80;99.90;;;11.58;92.51;96123.22;10404251;28;20235;-66
2024/03/29 20:03:15;;;;;;;5.53;5.03;;;10.80;99.90;;;11.62;92.27;96128.47;10393861;28;20225;-67
2024/03/29 20:08:18;;;;;;;5.50;5.00;;;10.90;99.90;;;11.60;92.19;96127.56;10397418;28;20241;-66
2024/03/29 20:13:20;;;;;;;6.80;6.10;;;10.80;99.90;;;11.51;93.14;96127.34;10420532;28;20248;-66
2024/03/29 20:18:23;;;;;;;8.13;7.20;;;10.80;99.90;;;11.46;93.84;96116.09;10406240;28;20335;-66
2024/03/29 20:23:27;;;;;;;11.18;9.32;;;10.80;99.90;;;11.59;92.86;96107.03;10400627;28;20347;-66
2024/03/29 20:28:29;;;;;;;6.93;6.22;;;10.80;99.90;;;11.52;93.40;96103.47;10421364;28;20248;-66
2024/03/29 20:33:32;;;;;;;4.55;4.15;;;10.80;99.90;;;11.48;93.71;96094.00;10403206;28;20228;-67
2024/03/29 20:38:36;;;;;;;4.40;4.00;;;10.80;99.90;;;11.52;93.65;96090.66;10406339;28;20225;-67
2024/03/29 20:43:38;;;;;;;4.40;4.00;;;10.80;99.90;;;11.47;93.87;96092.25;10397155;28;20225;-67
2024/03/29 20:48:40;;;;;;;4.15;3.80;;;10.80;99.90;;;11.46;93.58;96082.84;10400623;28;20280;-67
2024/03/29 20:53:45;;;;;;;3.65;3.35;;;10.80;99.90;;;11.31;94.64;96085.91;10416702;28;20660;-67
2024/03/29 20:58:47;;;;;;;3.83;3.53;;;10.60;99.90;;;11.33;94.37;96088.47;10400893;28;20248;-67
2024/03/29 21:09:10;;;;;;;3.53;3.17;;;10.50;99.90;;;11.25;94.79;96089.16;10422931;28;20252;-66
2024/03/29 21:14:12;;;;;;;4.30;3.90;;;10.50;99.90;;;11.17;95.40;96093.22;10423645;28;20327;-67
2024/03/29 21:19:15;;;;;;;3.58;3.28;;;10.50;99.90;;;11.17;95.34;96098.31;10438513;28;20259;-67
2024/03/29 21:24:18;;;;;;;3.97;3.63;;;10.40;99.90;;;11.10;96.22;96104.09;10426815;28;20253;-66
2024/03/29 21:29:20;;;;;;;3.67;3.38;;;10.30;99.90;;;11.12;95.99;96102.44;10425238;28;21056;-66
2024/03/29 21:34:22;;;;;;;4.40;3.60;;;10.40;99.90;;;11.12;95.87;96104.13;10408080;28;20694;-66
2024/03/29 21:39:26;;;;;;;3.63;3.20;;;10.40;99.90;;;11.10;95.57;96116.88;10417240;28;20316;-66
2024/03/29 21:44:28;;;;;;;2.85;2.75;;;10.20;99.90;;;10.84;97.05;96108.50;10457770;22;20247;-65
2024/03/29 21:49:30;;;;;;;3.30;2.70;;;10.10;99.90;;;10.77;97.21;96111.72;10491041;28;20266;-65
2024/03/29 21:54:35;;;;;;;3.65;3.13;;;9.90;99.90;;;10.64;97.76;96118.16;10477915;28;20283;-66
2024/03/29 21:59:37;;;;;;;3.67;3.30;;;9.80;99.90;;;10.58;98.19;96113.75;10462355;28;20761;-67
2024/03/29 22:04:40;;;;;;;5.85;3.60;;;9.80;99.90;;;10.44;98.47;96121.84;10462233;28;20767;-66
2024/03/29 22:09:43;;;;;;;5.70;3.30;;;9.60;99.90;;;10.31;99.43;96111.28;10464586;28;20719;-70
2024/03/29 22:14:45;;;;;;;7.38;3.28;;;9.60;99.90;;;10.25;99.83;96123.81;10460268;28;20296;-65
2024/03/29 22:19:47;;;;;;;6.93;3.50;;;9.50;99.90;;;10.15;100.00;96111.59;10463615;28;20732;-68
2024/03/29 22:24:51;;;;;;;11.43;4.78;;;9.40;99.90;;;10.16;98.98;96110.78;10463035;28;20746;-65
2024/03/29 22:29:53;;;;;;;7.45;4.32;;;9.30;99.90;;;10.20;99.50;96107.50;10479275;28;20278;-68
2024/03/29 22:34:55;;;;;;;11.55;5.63;;;9.40;99.90;;;9.99;99.88;96111.97;10459479;28;20251;-66
2024/03/29 22:39:59;;;;;;;15.18;6.38;;;9.20;99.90;;;10.05;99.93;96114.69;10464335;28;20252;-66
2024/03/29 22:45:01;;;;;;;16.00;7.32;;;9.20;99.90;;;9.88;100.00;96121.84;10473424;28;20315;-65
2024/03/29 22:50:05;;;;;;;20.73;8.70;;;9.10;99.90;;;9.82;100.00;96125.06;10450008;28;20319;-70
2024/03/29 22:55:09;;;;;;;17.50;8.05;;;9.00;99.90;;;9.92;100.00;96127.06;10443296;28;20365;-66
2024/03/29 23:00:15;;;;;;;22.15;7.43;;;9.10;99.90;;;9.81;100.00;96128.41;10445602;28;20749;-65